createdAt,value
2019-01-27T00:05:00.194Z,100.00
2019-01-27T00:08:24.423Z,100.00
2019-01-27T00:11:48.387Z,100.00
2019-01-27T00:19:02.384Z,100.00
2019-01-27T00:22:26.339Z,100.00
2019-01-27T00:25:50.401Z,100.00
2019-01-27T00:29:14.359Z,100.00
2019-01-27T00:32:38.321Z,100.00
2019-01-27T00:36:02.604Z,100.00
2019-01-27T00:39:26.565Z,100.00
2019-01-27T00:42:50.874Z,100.00
2019-01-27T00:46:33.880Z,100.00
2019-01-27T00:49:50.778Z,100.00
2019-01-27T00:53:14.741Z,100.00
2019-01-27T00:56:38.746Z,100.00
2019-01-27T01:00:02.815Z,100.00
2019-01-27T01:03:27.055Z,100.00
2019-01-27T01:06:51.110Z,100.00
2019-01-27T01:10:34.401Z,100.00
2019-01-27T01:13:58.618Z,100.00
2019-01-27T01:17:22.850Z,100.00
2019-01-27T01:20:47.244Z,100.00
2019-01-27T01:24:11.373Z,100.00
2019-01-27T01:27:35.341Z,100.00
2019-01-27T01:30:59.562Z,100.00
2019-01-27T01:34:23.518Z,100.00
2019-01-27T01:37:47.772Z,100.00
2019-01-27T01:40:52.660Z,100.00
2019-01-27T01:44:16.667Z,100.00
2019-01-27T01:47:40.633Z,100.00
2019-01-27T01:50:57.625Z,100.00
2019-01-27T01:54:21.579Z,100.00
2019-01-27T01:58:04.662Z,100.00
2019-01-27T02:04:59.801Z,100.00
2019-01-27T02:08:24.021Z,100.00
2019-01-27T02:11:47.991Z,100.00
2019-01-27T02:15:33.086Z,100.00
2019-01-27T02:18:57.049Z,100.00
2019-01-27T02:22:21.023Z,100.00
2019-01-27T02:25:44.985Z,100.00
2019-01-27T02:29:08.964Z,100.00
2019-01-27T02:39:54.487Z,100.00
2019-01-27T02:43:37.498Z,100.00
2019-01-27T02:47:01.992Z,100.00
2019-01-27T02:50:22.743Z,100.00
2019-01-27T02:53:46.720Z,100.00
2019-01-27T03:04:30.563Z,100.00
2019-01-27T03:07:54.537Z,100.00
2019-01-27T03:11:18.836Z,100.00
2019-01-27T03:14:42.813Z,100.00
2019-01-27T03:21:56.703Z,100.00
2019-01-27T03:25:20.976Z,100.00
2019-01-27T03:28:45.024Z,100.00
2019-01-27T03:32:09.016Z,100.00
2019-01-27T03:35:32.978Z,100.00
2019-01-27T03:38:56.965Z,100.00
2019-01-27T03:49:46.715Z,100.00
2019-01-27T03:53:10.696Z,100.00
2019-01-27T03:56:34.697Z,100.00
2019-01-27T03:59:58.706Z,100.00
2019-01-27T04:03:22.684Z,100.00
2019-01-27T04:06:46.932Z,100.00
2019-01-27T04:10:30.336Z,100.00
2019-01-27T04:13:34.949Z,100.00
2019-01-27T04:16:59.030Z,100.00
2019-01-27T04:24:13.451Z,100.00
2019-01-27T04:27:37.890Z,100.00
2019-01-27T04:31:01.901Z,100.00
2019-01-27T04:34:26.070Z,100.00
2019-01-27T04:37:50.282Z,100.00
2019-01-27T04:41:14.256Z,100.00
2019-01-27T04:44:38.492Z,100.00
2019-01-27T04:52:04.753Z,100.00
2019-01-27T04:55:28.737Z,100.00
2019-01-27T04:58:52.706Z,100.00
2019-01-27T07:44:30.520Z,100.00
2019-01-27T07:47:52.031Z,100.00
2019-01-27T07:51:35.282Z,100.00
2019-01-27T07:55:21.302Z,100.00
2019-01-27T07:59:04.531Z,100.00
2019-01-27T08:02:47.522Z,100.00
2019-01-27T08:06:30.783Z,100.00
2019-01-27T08:13:48.795Z,100.00
2019-01-27T08:17:31.804Z,100.00
2019-01-27T08:21:14.797Z,100.00
2019-01-27T08:28:33.838Z,100.00
2019-01-27T08:32:17.503Z,100.00
2019-01-27T08:36:00.511Z,100.00
2019-01-27T08:39:43.757Z,100.00
2019-01-27T08:50:15.935Z,99.82
2019-01-27T08:57:22.824Z,95.47
2019-01-27T09:04:36.549Z,92.60
2019-01-27T09:11:54.645Z,88.70
2019-01-27T09:15:37.711Z,86.33
2019-01-27T09:26:40.381Z,81.49
2019-01-27T09:30:44.439Z,81.04
2019-01-27T09:34:27.504Z,78.80
2019-01-27T09:38:10.757Z,77.91
2019-01-27T09:41:53.960Z,77.68
2019-01-27T09:45:36.984Z,76.53
2019-01-27T09:48:56.209Z,76.53
2019-01-27T09:52:39.285Z,75.91
2019-01-27T10:00:07.213Z,74.77
2019-01-27T10:07:21.341Z,72.67
2019-01-27T10:11:04.356Z,71.92
2019-01-27T10:14:47.616Z,70.62
2019-01-27T10:22:05.541Z,70.22
2019-01-27T10:25:29.304Z,69.44
2019-01-27T10:29:12.535Z,69.70
2019-01-27T10:32:55.593Z,69.06
2019-01-27T10:36:38.667Z,69.32
2019-01-27T10:40:21.911Z,70.48
2019-01-27T10:44:05.000Z,69.69
2019-01-27T10:51:25.797Z,68.10
2019-01-27T10:56:26.236Z,66.97
2019-01-27T11:00:09.269Z,66.57
2019-01-27T14:47:42.568Z,75.03
2019-01-27T14:50:50.590Z,75.56
2019-01-27T14:53:58.444Z,76.12
2019-01-27T14:57:06.116Z,76.72
2019-01-27T15:00:24.162Z,76.61
2019-01-27T15:03:32.410Z,77.05
2019-01-27T15:06:40.293Z,77.42
2019-01-27T15:09:47.953Z,77.59
2019-01-27T15:12:56.006Z,78.69
2019-01-27T15:16:03.616Z,78.89
2019-01-27T15:19:11.242Z,78.91
2019-01-27T15:22:19.091Z,79.29
2019-01-27T15:25:26.701Z,79.78
2019-01-27T15:28:35.149Z,79.94
2019-01-27T15:31:42.850Z,80.69
2019-01-27T15:34:50.717Z,81.03
2019-01-27T15:37:58.482Z,81.26
2019-01-27T15:41:06.073Z,81.73
2019-01-27T15:44:13.647Z,81.82
2019-01-27T15:47:21.406Z,81.94
2019-01-27T15:50:30.662Z,81.93
2019-01-27T15:53:38.202Z,82.96
2019-01-27T15:56:46.046Z,82.03
2019-01-27T15:59:53.648Z,82.12
2019-01-27T16:03:01.137Z,81.90
2019-01-27T16:06:08.803Z,82.09
2019-01-27T16:09:16.659Z,81.52
2019-01-27T16:12:24.558Z,82.05
2019-01-27T16:15:33.193Z,81.86
2019-01-27T16:18:41.691Z,81.87
2019-01-27T16:21:49.616Z,81.93
2019-01-27T16:24:57.605Z,81.73
2019-01-27T16:28:05.872Z,82.12
2019-01-27T16:35:26.142Z,80.21
2019-01-27T16:38:33.762Z,80.22
2019-01-27T16:48:19.101Z,80.17
2019-01-27T16:51:26.835Z,80.87
2019-01-27T16:54:34.549Z,80.94
2019-01-27T16:57:42.079Z,80.14
2019-01-27T17:00:49.717Z,81.15
2019-01-27T17:03:57.271Z,81.36
2019-01-27T17:07:04.992Z,81.52
2019-01-27T17:10:13.907Z,81.90
2019-01-27T17:13:21.822Z,81.52
2019-01-27T17:16:30.226Z,80.64
2019-01-27T17:19:38.899Z,81.90
2019-01-27T17:22:46.980Z,82.41
2019-01-27T17:25:54.874Z,82.40
2019-01-27T17:29:02.463Z,82.74
2019-01-27T17:32:10.358Z,82.68
2019-01-27T17:35:21.162Z,82.02
2019-01-27T17:38:28.747Z,82.56
2019-01-27T17:41:37.551Z,84.22
2019-01-27T17:44:44.995Z,85.17
2019-01-27T17:47:53.079Z,86.22
2019-01-27T17:51:01.491Z,84.71
2019-01-27T17:54:09.611Z,86.05
2019-01-27T17:57:36.854Z,86.14
2019-01-27T18:01:16.105Z,86.62
2019-01-27T18:04:42.248Z,86.78
2019-01-27T18:08:02.067Z,88.49
2019-01-27T18:11:21.656Z,91.12
2019-01-27T18:14:32.315Z,90.45
2019-01-27T18:17:39.819Z,93.97
2019-01-27T18:20:47.669Z,91.07
2019-01-27T18:23:55.419Z,91.34
2019-01-27T18:27:02.954Z,91.64
2019-01-27T18:30:16.267Z,92.62
2019-01-27T18:33:23.710Z,93.83
2019-01-27T18:36:31.369Z,94.82
2019-01-27T18:39:39.566Z,96.15
2019-01-27T18:42:50.296Z,97.16
2019-01-27T18:45:58.150Z,98.20
2019-01-27T18:49:05.852Z,99.21
2019-01-27T18:52:13.411Z,100.00
2019-01-27T18:55:28.292Z,100.00
2019-01-27T18:58:52.475Z,100.00
2019-01-27T19:02:26.412Z,100.00
2019-01-27T19:05:40.007Z,100.00
2019-01-27T19:09:10.217Z,100.00
2019-01-27T19:12:28.377Z,100.00
2019-01-27T19:16:01.799Z,100.00
2019-01-27T19:19:29.618Z,100.00
2019-01-27T19:22:50.461Z,100.00
2019-01-27T19:26:09.900Z,100.00
2019-01-27T19:29:46.302Z,100.00
2019-01-27T19:33:15.803Z,100.00
2019-01-27T19:36:46.813Z,100.00
2019-01-27T19:40:15.015Z,100.00
2019-01-27T19:43:48.208Z,100.00
2019-01-27T19:47:18.030Z,100.00
2019-01-27T19:50:44.346Z,99.43
2019-01-27T19:53:57.864Z,98.43
2019-01-27T19:57:13.053Z,99.14
2019-01-27T20:00:40.230Z,99.69
2019-01-27T20:03:57.415Z,99.83
2019-01-27T20:07:24.640Z,99.56
2019-01-27T20:11:07.335Z,100.00
2019-01-27T20:14:31.379Z,100.00
2019-01-27T20:17:49.786Z,100.00
2019-01-27T20:21:09.027Z,100.00
2019-01-27T20:24:31.924Z,100.00
2019-01-27T20:27:47.784Z,100.00
2019-01-27T20:31:17.694Z,99.93
2019-01-27T20:35:00.446Z,100.00
2019-01-27T20:38:34.120Z,100.00
2019-01-27T20:42:04.520Z,100.00
2019-01-27T20:45:44.300Z,100.00
2019-01-27T20:49:17.452Z,100.00
2019-01-27T20:52:32.105Z,100.00
2019-01-27T20:55:47.875Z,100.00
2019-01-27T20:59:12.778Z,100.00
2019-01-27T21:02:32.363Z,100.00
2019-01-27T21:06:02.661Z,100.00
2019-01-27T21:09:24.791Z,100.00
2019-01-27T21:12:51.020Z,100.00
2019-01-27T21:16:06.419Z,100.00
2019-01-27T21:19:22.912Z,100.00
2019-01-27T21:22:31.385Z,100.00
2019-01-27T21:25:39.244Z,100.00
2019-01-27T21:28:50.937Z,100.00
2019-01-27T21:31:58.580Z,100.00
2019-01-27T21:35:07.639Z,100.00
2019-01-27T21:38:15.670Z,100.00
2019-01-27T21:41:23.170Z,100.00
2019-01-27T21:44:32.343Z,100.00
2019-01-27T21:47:40.457Z,100.00
2019-01-27T21:50:48.414Z,100.00
2019-01-27T21:53:56.047Z,100.00
2019-01-27T21:57:03.783Z,100.00
2019-01-27T22:00:18.031Z,100.00
2019-01-27T22:03:25.388Z,100.00
2019-01-27T22:06:34.122Z,100.00
2019-01-27T22:09:41.784Z,100.00
2019-01-27T22:12:49.677Z,100.00
2019-01-27T22:15:57.070Z,100.00
2019-01-27T22:19:04.932Z,100.00
2019-01-27T22:22:12.598Z,100.00
2019-01-27T22:25:21.067Z,100.00
2019-01-27T22:28:29.129Z,99.82
2019-01-27T22:31:37.028Z,99.97
2019-01-27T22:34:44.757Z,99.61
2019-01-27T22:37:52.535Z,99.35
2019-01-27T22:41:00.266Z,99.22
2019-01-27T22:44:07.977Z,99.08
2019-01-27T22:47:15.457Z,99.43
2019-01-27T22:50:22.989Z,99.21
2019-01-27T22:53:30.358Z,98.93
2019-01-27T22:56:37.922Z,98.76
2019-01-27T22:59:45.432Z,98.98
2019-01-27T23:02:52.938Z,99.25
2019-01-27T23:06:00.928Z,99.14
2019-01-27T23:09:14.681Z,99.20
2019-01-27T23:12:22.155Z,99.75
2019-01-27T23:15:29.636Z,99.92
2019-01-27T23:18:37.527Z,100.00
2019-01-27T23:21:45.257Z,100.00
2019-01-27T23:24:52.674Z,100.00
2019-01-27T23:28:00.246Z,100.00
2019-01-27T23:31:07.634Z,100.00
2019-01-27T23:34:15.241Z,99.65
2019-01-27T23:37:22.680Z,99.81
2019-01-27T23:40:30.885Z,99.71
2019-01-27T23:43:38.437Z,99.43
2019-01-27T23:46:51.215Z,99.86
2019-01-27T23:49:58.658Z,99.66
2019-01-27T23:53:06.192Z,100.00
2019-01-27T23:56:13.562Z,99.82
2019-01-27T23:59:22.739Z,99.78
